Terminal Aerodrome Forecast
Issued by NWS

Home | Current Version | Previous Version | Text Only | Print | Product List | Glossary On
Versions: 1 2 3 4 5 6 7 8 9 10 11 12 13 14 15 16
000
FTUS44 KHGX 211914 AAA
TAFLBX
TAF AMD
KLBX 211914Z 2119/2218 VRB03KT P6SM VCSH BKN040 OVC060
     FM220000 16007KT P6SM FEW025 SCT300
     FM220300 16003KT P6SM SKC
     FM220900 17004KT P6SM VCTS SCT020CB=

USA.gov is the U.S. government's official web portal to all federal, state and local government web resources and services.